Time;durP1;ratioP1;P1;durP2;ratioP2;P2;SDS_P1;SDS_P2;PMS_P1;PMS_P2;Temp;Humidity;BMP_temperature;BMP_pressure;BME280_temperature;BME280_humidity;BME280_pressure;Samples;Min_cycle;Max_cycle;Signal;HPM_P1;HPM_P2
2021/05/05 00:00:59;;;;;;;5.43;2.53;;;;;;;14.48;90.39;94395.25;10395252;28;20354;-79
2021/05/05 00:06:01;;;;;;;11.90;2.80;;;;;;;14.54;90.54;94391.34;10412510;28;20492;-79
2021/05/05 00:11:01;;;;;;;3.60;2.67;;;;;;;14.57;89.54;94384.50;10411717;28;20026;-79
2021/05/05 00:16:01;;;;;;;2.87;2.57;;;;;;;14.35;91.82;94384.19;10412636;28;20095;-79
2021/05/05 00:21:04;;;;;;;6.80;3.00;;;;;;;14.33;93.04;94377.47;10411658;28;20025;-79
2021/05/05 00:26:04;;;;;;;4.13;2.90;;;;;;;14.15;95.13;94379.25;10411151;28;20408;-79
2021/05/05 00:31:05;;;;;;;4.97;2.80;;;;;;;14.06;96.74;94381.06;10373522;28;20025;-79
2021/05/05 00:36:05;;;;;;;4.20;2.60;;;;;;;14.04;98.23;94358.94;10370843;28;20100;-79
2021/05/05 00:41:08;;;;;;;7.78;4.32;;;;;;;13.89;100.00;94369.00;10369919;28;20022;-79
2021/05/05 00:46:08;;;;;;;5.55;3.10;;;;;;;13.83;100.00;94365.59;10369704;28;20042;-79
2021/05/05 00:51:08;;;;;;;3.20;2.85;;;;;;;13.84;100.00;94342.06;10370366;28;20045;-79
2021/05/05 00:56:09;;;;;;;6.28;2.80;;;;;;;13.94;100.00;94346.47;10369485;28;20099;-79
2021/05/05 01:01:10;;;;;;;5.35;3.63;;;;;;;13.77;100.00;94336.28;10369635;28;20421;-79
2021/05/05 01:06:10;;;;;;;4.28;3.80;;;;;;;13.58;100.00;94337.22;10369794;28;20072;-79
2021/05/05 01:11:11;;;;;;;4.40;3.58;;;;;;;13.49;100.00;94341.72;10368882;28;20029;-79
2021/05/05 01:16:15;;;;;;;5.93;4.40;;;;;;;13.38;100.00;94335.75;10368896;28;20037;-79
2021/05/05 01:21:16;;;;;;;8.45;3.78;;;;;;;13.30;100.00;94336.41;10369222;28;20041;-79
2021/05/05 01:26:17;;;;;;;5.10;3.85;;;;;;;13.23;100.00;94322.50;10368588;28;20109;-79
2021/05/05 01:31:17;;;;;;;5.90;3.57;;;;;;;13.21;100.00;94314.72;10368430;28;20480;-79
2021/05/05 01:36:20;;;;;;;12.47;6.37;;;;;;;13.10;100.00;94318.69;10367716;28;20405;-79
2021/05/05 01:41:21;;;;;;;6.57;4.32;;;;;;;13.06;100.00;94309.59;10367914;28;20034;-79
2021/05/05 01:46:22;;;;;;;6.32;4.25;;;;;;;12.97;100.00;94313.00;10403000;28;20488;-79
2021/05/05 01:51:23;;;;;;;8.63;4.40;;;;;;;12.96;100.00;94319.50;10409031;28;20053;-79
2021/05/05 01:56:24;;;;;;;7.15;5.00;;;;;;;12.86;100.00;94306.19;10408248;28;20533;-79
2021/05/05 02:01:24;;;;;;;7.37;4.70;;;;;;;12.90;100.00;94306.41;10408131;28;20094;-79
2021/05/05 02:06:24;;;;;;;7.53;5.00;;;;;;;12.97;100.00;94296.03;10408495;28;20041;-79
2021/05/05 02:11:26;;;;;;;5.63;4.67;;;;;;;12.92;100.00;94320.38;10407678;28;20026;-79
2021/05/05 02:16:26;;;;;;;12.02;5.15;;;;;;;13.05;100.00;94303.41;10408073;28;20029;-79
2021/05/05 02:21:26;;;;;;;8.67;5.23;;;;;;;13.17;100.00;94286.72;10408240;28;20037;-79
2021/05/05 02:26:27;;;;;;;6.73;5.47;;;;;;;13.17;100.00;94292.13;10389697;28;20516;-79
2021/05/05 02:31:27;;;;;;;6.53;4.88;;;;;;;13.28;100.00;94287.31;10367353;28;20026;-79
2021/05/05 02:36:32;;;;;;;10.75;5.25;;;;;;;13.21;100.00;94289.63;10367276;28;20030;-79
2021/05/05 02:41:34;;;;;;;5.47;4.82;;;;;;;13.21;100.00;94287.72;10366620;28;20113;-79
2021/05/05 02:46:34;;;;;;;9.77;4.82;;;;;;;13.23;100.00;94273.94;10369683;28;20104;-79
2021/05/05 02:51:35;;;;;;;8.97;5.23;;;;;;;13.30;100.00;94282.44;10356927;28;20111;-79
2021/05/05 02:56:35;;;;;;;6.97;4.63;;;;;;;13.25;100.00;94288.72;10374430;28;20308;-79
2021/05/05 03:01:36;;;;;;;5.97;5.10;;;;;;;13.37;100.00;94277.47;10373941;28;20025;-79
2021/05/05 03:06:36;;;;;;;9.20;5.13;;;;;;;13.28;100.00;94288.16;10373470;28;20052;-79
2021/05/05 03:11:36;;;;;;;6.17;4.87;;;;;;;13.34;100.00;94272.66;10373805;28;20025;-79
2021/05/05 03:16:37;;;;;;;9.00;5.40;;;;;;;12.96;100.00;94265.56;10373334;28;20288;-77
2021/05/05 03:21:39;;;;;;;9.18;6.07;;;;;;;13.13;100.00;94277.63;10373112;28;20121;-79
2021/05/05 03:26:39;;;;;;;12.65;6.82;;;;;;;13.08;100.00;94248.88;10374969;28;20037;-79
2021/05/05 03:31:40;;;;;;;9.63;6.93;;;;;;;13.21;100.00;94284.25;10413990;28;20025;-79
2021/05/05 03:36:40;;;;;;;13.00;8.73;;;;;;;13.12;100.00;94267.97;10396042;28;20021;-79
2021/05/05 03:41:41;;;;;;;20.23;9.20;;;;;;;13.22;100.00;94291.25;10413533;28;20295;-79
2021/05/05 03:46:41;;;;;;;16.73;10.05;;;;;;;13.12;100.00;94284.94;10413361;28;20045;-79
2021/05/05 03:51:42;;;;;;;19.15;9.32;;;;;;;13.02;100.00;94278.94;10413164;28;20091;-79
2021/05/05 03:56:43;;;;;;;16.75;11.13;;;;;;;13.08;100.00;94289.34;10412296;28;20113;-79
2021/05/05 04:01:43;;;;;;;16.05;9.30;;;;;;;13.06;100.00;94302.34;10412789;28;20473;-79
2021/05/05 04:06:43;;;;;;;17.40;10.20;;;;;;;13.06;100.00;94288.84;10412501;28;20025;-79
2021/05/05 04:11:44;;;;;;;19.90;10.57;;;;;;;13.05;100.00;94284.53;10412534;28;20394;-79
2021/05/05 04:16:45;;;;;;;15.68;9.63;;;;;;;13.06;100.00;94312.31;10411553;28;20036;-79
2021/05/05 04:21:45;;;;;;;15.77;9.27;;;;;;;13.30;100.00;94299.44;10411329;28;20037;-79
2021/05/05 04:26:48;;;;;;;16.63;9.93;;;;;;;13.50;100.00;94300.94;10409334;28;20136;-79
2021/05/05 04:31:51;;;;;;;15.05;10.98;;;;;;;13.54;100.00;94284.16;10370392;28;20303;-79
2021/05/05 04:36:52;;;;;;;15.80;11.18;;;;;;;13.57;100.00;94314.03;10370281;28;20069;-79
2021/05/05 04:41:52;;;;;;;18.38;11.00;;;;;;;13.73;100.00;94300.19;10370236;28;20180;-79
2021/05/05 04:46:53;;;;;;;20.13;13.40;;;;;;;13.90;100.00;94300.34;10369296;28;20497;-79
2021/05/05 04:51:53;;;;;;;17.20;10.37;;;;;;;14.00;100.00;94304.72;10369328;28;20056;-78
2021/05/05 04:56:54;;;;;;;20.15;11.52;;;;;;;14.23;100.00;94321.75;10369392;28;20273;-79
2021/05/05 05:01:54;;;;;;;16.93;10.23;;;;;;;14.24;100.00;94317.94;10368785;28;20033;-79
2021/05/05 05:06:54;;;;;;;21.10;10.43;;;;;;;14.35;100.00;94315.81;10368655;28;20276;-79
2021/05/05 05:11:55;;;;;;;21.40;11.37;;;;;;;14.55;100.00;94302.91;10368682;28;20084;-79
2021/05/05 05:16:57;;;;;;;17.30;11.20;;;;;;;14.61;100.00;94320.59;10368019;28;20055;-79
2021/05/05 05:21:58;;;;;;;16.60;10.90;;;;;;;14.64;100.00;94311.91;10367988;28;20300;-79
2021/05/05 05:26:58;;;;;;;16.25;11.85;;;;;;;14.68;100.00;94310.97;10350999;28;20049;-79
2021/05/05 05:31:58;;;;;;;22.27;10.73;;;;;;;14.76;100.00;94304.00;10368240;28;20450;-79
2021/05/05 05:36:59;;;;;;;23.70;11.30;;;;;;;15.14;100.00;94308.16;10367921;28;20504;-79
2021/05/05 05:41:59;;;;;;;17.93;12.60;;;;;;;15.45;100.00;94296.50;10367701;28;20331;-79
2021/05/05 05:47:00;;;;;;;21.53;11.27;;;;;;;15.92;100.00;94321.16;10407892;28;20076;-79
2021/05/05 05:52:00;;;;;;;17.58;11.85;;;;;;;16.09;100.00;94314.94;10407683;28;20037;-79
2021/05/05 05:57:00;;;;;;;22.10;14.00;;;;;;;16.05;100.00;94332.97;10390380;28;20037;-79
2021/05/05 06:02:01;;;;;;;19.40;11.10;;;;;;;16.39;100.00;94334.09;10408365;28;20298;-79
2021/05/05 06:07:01;;;;;;;14.98;10.15;;;;;;;16.61;100.00;94345.88;10407751;28;20276;-79
2021/05/05 06:12:02;;;;;;;15.45;8.50;;;;;;;17.81;98.32;94341.53;10407699;28;20075;-79
2021/05/05 06:17:03;;;;;;;14.15;7.43;;;;;;;18.25;95.18;94331.16;10408369;28;20037;-78
2021/05/05 06:22:04;;;;;;;16.40;6.45;;;;;;;20.26;74.57;94317.22;10412021;28;20092;-79
2021/05/05 06:27:06;;;;;;;9.77;5.40;;;;;;;21.79;65.94;94309.97;10410715;28;20405;-78
2021/05/05 06:32:07;;;;;;;5.82;4.75;;;;;;;23.42;55.70;94306.63;10374844;28;20779;-79
2021/05/05 06:37:07;;;;;;;13.77;5.18;;;;;;;24.57;50.59;94304.78;10356691;28;20036;-79
2021/05/05 06:42:08;;;;;;;9.13;5.00;;;;;;;25.60;46.36;94309.06;10374130;28;20038;-77
2021/05/05 06:47:10;;;;;;;7.55;4.53;;;;;;;26.43;43.42;94304.16;10374064;28;20095;-78
2021/05/05 06:52:10;;;;;;;10.27;5.18;;;;;;;27.06;42.48;94276.44;10374077;28;20120;-78
2021/05/05 06:57:10;;;;;;;9.30;5.10;;;;;;;25.93;43.70;94280.59;10373600;28;20092;-79
2021/05/05 07:02:11;;;;;;;7.60;4.77;;;;;;;26.77;40.31;94271.63;10374193;28;20037;-79
2021/05/05 07:07:11;;;;;;;10.47;4.10;;;;;;;27.60;39.93;94268.25;10373311;28;20029;-79
2021/05/05 07:12:11;;;;;;;9.17;4.20;;;;;;;28.12;36.96;94257.56;10373237;28;20269;-78
2021/05/05 07:17:12;;;;;;;10.53;4.30;;;;;;;27.42;37.65;94246.16;10373673;28;20033;-79
2021/05/05 07:22:12;;;;;;;6.37;4.03;;;;;;;27.68;37.81;94252.47;10372658;28;20036;-79
2021/05/05 07:27:13;;;;;;;8.33;4.03;;;;;;;28.76;36.58;94261.34;10379182;28;20276;-79
2021/05/05 07:32:14;;;;;;;8.70;3.85;;;;;;;29.20;36.16;94250.03;10414055;28;20546;-79
2021/05/05 07:37:22;;;;;;;6.35;3.75;;;;;;;30.14;34.10;94250.06;10413102;28;20021;-79
2021/05/05 07:47:36;;;;;;;10.75;3.10;;;;;;;30.51;32.15;94238.22;10412988;28;20025;-79
2021/05/05 07:52:37;;;;;;;7.47;3.75;;;;;;;29.10;34.98;94233.09;10413098;28;20468;-79
2021/05/05 07:57:41;;;;;;;7.85;3.20;;;;;;;29.09;33.69;94233.50;10394558;28;20125;-79
2021/05/05 08:02:41;;;;;;;5.28;3.35;;;;;;;29.12;34.00;94252.84;10412433;28;20040;-79
2021/05/05 08:07:42;;;;;;;7.50;3.88;;;;;;;27.11;36.93;94241.00;10412552;28;20029;-79
2021/05/05 08:12:42;;;;;;;7.38;4.78;;;;;;;26.79;38.67;94243.66;10411815;28;20033;-79
2021/05/05 08:17:44;;;;;;;5.97;3.03;;;;;;;27.65;35.46;94231.97;10411698;28;20087;-80
2021/05/05 08:22:45;;;;;;;8.70;4.50;;;;;;;25.90;39.45;94245.59;10411570;28;20044;-79
2021/05/05 08:27:46;;;;;;;17.90;5.35;;;;;;;24.85;42.48;94240.34;10400358;28;20030;-79
2021/05/05 08:32:47;;;;;;;9.43;4.55;;;;;;;25.79;43.17;94230.16;10370303;28;20545;-79
2021/05/05 08:37:49;;;;;;;7.13;3.90;;;;;;;26.97;38.32;94205.09;10369861;28;20048;-79
2021/05/05 08:42:50;;;;;;;5.28;4.20;;;;;;;27.06;38.21;94215.78;10368867;28;20427;-79
2021/05/05 08:47:52;;;;;;;4.88;3.25;;;;;;;27.90;36.07;94214.59;10369610;28;20137;-79
2021/05/05 08:52:54;;;;;;;5.00;2.83;;;;;;;26.58;36.84;94211.28;10370169;28;20033;-79
2021/05/05 08:57:55;;;;;;;9.43;3.83;;;;;;;25.23;40.38;94216.38;10369078;28;20555;-78
2021/05/05 09:02:57;;;;;;;8.50;4.32;;;;;;;24.15;43.12;94213.22;10368585;28;20096;-78
2021/05/05 09:08:08;;;;;;;15.73;5.22;;;;;;;22.75;49.06;94214.59;10368516;28;20398;-79
2021/05/05 09:13:09;;;;;;;8.27;3.90;;;;;;;23.10;47.64;94212.84;10368674;28;20037;-79
2021/05/05 09:18:11;;;;;;;11.67;4.53;;;;;;;23.97;44.18;94212.22;10368606;28;20037;-79
2021/05/05 09:23:11;;;;;;;5.13;3.35;;;;;;;25.19;41.77;94205.34;10368601;28;20315;-79
2021/05/05 09:28:20;;;;;;;6.23;3.10;;;;;;;24.66;41.30;94206.41;10367581;28;20459;-79
2021/05/05 09:33:33;;;;;;;12.07;3.55;;;;;;;23.79;42.96;94200.97;10367741;28;20272;-79
2021/05/05 09:38:45;;;;;;;5.25;3.42;;;;;;;22.97;44.85;94193.84;10368039;28;20045;-79
2021/05/05 09:43:46;;;;;;;8.98;4.15;;;;;;;22.31;47.51;94193.81;10390560;28;20050;-78
2021/05/05 09:48:46;;;;;;;7.60;3.72;;;;;;;21.74;49.84;94190.69;10408253;28;20087;-79
2021/05/05 09:53:53;;;;;;;12.43;4.57;;;;;;;20.93;53.05;94191.13;10408352;28;20037;-79
2021/05/05 09:58:59;;;;;;;6.70;4.50;;;;;;;20.69;54.66;94183.88;10407702;28;20029;-79
2021/05/05 10:03:59;;;;;;;4.78;3.78;;;;;;;20.73;57.91;94179.31;10408188;28;20514;-79
2021/05/05 10:09:07;;;;;;;10.27;4.20;;;;;;;20.69;58.50;94172.97;10407847;28;20029;-79
2021/05/05 10:14:10;;;;;;;11.43;5.38;;;;;;;20.77;58.23;94172.78;10407865;28;20378;-78
2021/05/05 10:19:20;;;;;;;10.43;4.38;;;;;;;20.66;59.56;94166.22;10407031;28;20033;-78
2021/05/05 10:24:22;;;;;;;7.43;4.03;;;;;;;20.58;58.51;94159.00;10407260;28;20029;-79
2021/05/05 10:29:23;;;;;;;5.65;4.00;;;;;;;20.81;55.78;94153.78;10407684;28;20022;-78
2021/05/05 10:34:26;;;;;;;7.43;3.90;;;;;;;21.29;51.50;94161.91;10406707;28;20029;-80
2021/05/05 10:39:39;;;;;;;10.00;4.85;;;;;;;25.56;42.54;94141.19;10406874;28;20083;-79
2021/05/05 10:44:39;;;;;;;4.10;2.55;;;;;;;29.42;33.57;94129.66;10407440;28;20589;-79
2021/05/05 10:49:58;;;;;;;9.27;2.50;;;;;;;30.90;30.67;94119.59;10389157;28;20090;-79
2021/05/05 10:54:59;;;;;;;5.32;2.83;;;;;;;29.32;32.74;94113.97;10407081;28;20076;-79
2021/05/05 11:00:12;;;;;;;10.57;2.43;;;;;;;29.45;31.29;94109.47;10406460;28;20099;-79
2021/05/05 11:05:13;;;;;;;3.20;2.10;;;;;;;30.90;30.02;94099.41;10406836;28;20279;-79
2021/05/05 11:10:32;;;;;;;7.80;3.13;;;;;;;28.98;32.41;94089.69;10396185;28;20014;-79
2021/05/05 11:15:42;;;;;;;6.43;2.38;;;;;;;27.72;35.42;94095.88;10413396;28;20037;-80
2021/05/05 11:20:42;;;;;;;6.75;2.55;;;;;;;26.62;36.12;94088.06;10413871;28;20029;-79
2021/05/05 11:25:43;;;;;;;4.47;3.00;;;;;;;24.99;39.51;94094.81;10413305;28;20514;-80
2021/05/05 11:30:49;;;;;;;9.35;3.10;;;;;;;24.58;39.25;94094.81;10377809;28;20563;-79
2021/05/05 11:35:50;;;;;;;3.80;3.05;;;;;;;24.03;41.35;94081.72;10373127;28;20078;-80
2021/05/05 11:40:52;;;;;;;8.05;3.00;;;;;;;23.49;43.43;94083.78;10372134;28;20026;-80
2021/05/05 11:45:55;;;;;;;7.60;3.13;;;;;;;23.45;43.78;94078.25;10330236;28;20065;-79
2021/05/05 11:50:56;;;;;;;16.63;3.58;;;;;;;23.68;44.63;94069.94;10331984;28;20057;-78
2021/05/05 11:55:56;;;;;;;10.25;3.20;;;;;;;23.75;46.10;94065.69;10330907;28;20121;-79
2021/05/05 12:00:57;;;;;;;8.68;3.72;;;;;;;23.29;46.88;94067.47;10330940;28;20109;-79
2021/05/05 12:05:58;;;;;;;5.38;2.95;;;;;;;23.51;45.58;94065.00;10331550;28;20057;-79
2021/05/05 12:10:59;;;;;;;7.70;3.05;;;;;;;23.76;43.82;94059.03;10330343;28;20022;-79
2021/05/05 12:16:14;;;;;;;5.72;2.90;;;;;;;23.95;44.15;94056.16;10330657;28;20101;-80
2021/05/05 12:21:18;;;;;;;6.47;1.70;;;;;;;23.60;40.64;94035.34;10333719;28;20022;-79
2021/05/05 12:26:35;;;;;;;3.72;1.73;;;;;;;23.55;42.18;94036.47;10328949;28;20034;-79
2021/05/05 12:31:38;;;;;;;5.00;1.88;;;;;;;22.66;42.50;94039.53;10329633;28;20030;-80
2021/05/05 12:36:42;;;;;;;7.45;1.80;;;;;;;22.57;41.59;94036.25;10328208;28;20033;-79
2021/05/05 12:41:45;;;;;;;4.18;1.95;;;;;;;22.83;39.77;94018.25;10330133;28;20957;-79
2021/05/05 12:46:56;;;;;;;4.10;2.47;;;;;;;22.20;40.64;94036.75;10366938;28;20046;-80
2021/05/05 12:51:57;;;;;;;6.45;2.10;;;;;;;22.04;40.96;94030.63;10369204;28;20041;-80
2021/05/05 12:56:58;;;;;;;2.65;1.63;;;;;;;22.40;40.57;94012.91;10352403;28;20382;-80
2021/05/05 13:02:10;;;;;;;2.22;1.40;;;;;;;22.93;42.44;94020.34;10369017;28;20030;-80
2021/05/05 13:07:41;;;;;;;5.75;1.60;;;;;;;23.18;40.65;94009.75;10368904;28;20033;-80
2021/05/05 13:12:57;;;;;;;6.63;1.80;;;;;;;23.33;36.75;94009.94;10369036;28;20092;-79
2021/05/05 13:34:16;;;;;;;4.88;1.10;;;;;;;21.66;43.33;94006.50;10409750;28;20025;-80
2021/05/05 13:39:19;;;;;;;8.30;1.73;;;;;;;22.13;42.33;93998.31;10408486;28;20033;-80
2021/05/05 13:44:30;;;;;;;4.18;1.65;;;;;;;22.47;44.25;93993.06;10408503;28;20129;-80
2021/05/05 13:49:36;;;;;;;4.68;1.70;;;;;;;22.68;44.12;94006.28;10416193;28;20041;-79
2021/05/05 13:54:37;;;;;;;5.40;1.00;;;;;;;22.76;43.02;94001.69;10410638;28;20424;-79
2021/05/05 13:59:39;;;;;;;5.00;1.30;;;;;;;22.67;43.90;94002.75;10407883;28;20117;-79
2021/05/05 14:04:40;;;;;;;12.00;1.40;;;;;;;22.46;43.61;94007.91;10408166;28;20021;-79
2021/05/05 14:09:41;;;;;;;10.27;2.15;;;;;;;22.86;44.33;94012.81;10407908;28;20136;-79
2021/05/05 14:14:41;;;;;;;3.73;2.27;;;;;;;22.65;46.82;94013.28;10407547;28;20061;-80
2021/05/05 14:19:43;;;;;;;4.13;1.47;;;;;;;22.49;47.17;94002.50;10407820;28;20095;-79
2021/05/05 14:24:43;;;;;;;6.90;1.85;;;;;;;22.69;48.94;94000.44;10407165;28;20029;-79
2021/05/05 14:29:43;;;;;;;6.70;2.07;;;;;;;22.22;47.18;94014.53;10380146;28;20028;-79
2021/05/05 14:34:44;;;;;;;3.37;1.40;;;;;;;22.05;49.05;94013.84;10366535;28;20033;-79
2021/05/05 14:39:44;;;;;;;2.43;1.40;;;;;;;21.96;50.33;94011.34;10349315;28;20079;-80
2021/05/05 14:45:09;;;;;;;5.43;2.72;;;;;;;21.95;49.99;94003.47;10373053;28;20045;-79
2021/05/05 14:50:11;;;;;;;4.00;1.85;;;;;;;21.79;54.15;94009.84;10374237;28;20029;-80
2021/05/05 14:55:13;;;;;;;5.07;1.27;;;;;;;21.74;54.35;94001.16;10375676;28;20034;-79
2021/05/05 15:00:14;;;;;;;9.48;1.85;;;;;;;21.72;53.62;94000.75;10373576;28;20076;-80
2021/05/05 15:05:18;;;;;;;4.78;1.85;;;;;;;21.51;55.55;94013.59;10373398;28;20405;-79
2021/05/05 15:15:40;;;;;;;4.50;1.10;;;;;;;20.76;62.14;93995.63;10373327;28;20026;-79
2021/05/05 15:36:22;;;;;;;6.97;1.30;;;;;;;21.11;57.88;93970.22;10372563;28;20055;-79
2021/05/05 15:41:30;;;;;;;3.40;1.58;;;;;;;21.07;60.41;93967.44;10371935;28;20022;-79
2021/05/05 15:46:35;;;;;;;6.40;1.42;;;;;;;20.57;60.63;93963.59;10409972;28;20045;-79
2021/05/05 15:51:36;;;;;;;3.00;1.42;;;;;;;20.14;59.24;93977.03;10416893;28;20088;-78
2021/05/05 15:56:36;;;;;;;2.40;1.37;;;;;;;20.05;66.37;93977.22;10411372;28;20018;-79
2021/05/05 16:01:44;;;;;;;2.40;1.57;;;;;;;19.80;70.14;93988.28;10412526;28;20363;-79
2021/05/05 16:17:24;;;;;;;6.25;1.70;;;;;;;19.80;61.93;93984.75;10412432;28;20033;-79
2021/05/05 16:22:30;;;;;;;6.80;1.80;;;;;;;19.92;64.74;93976.50;10411489;28;20037;-79
2021/05/05 17:14:55;;;;;;;6.53;2.00;;;;;;;16.42;100.00;93991.72;10368772;28;19909;-79
2021/05/05 17:20:10;;;;;;;11.38;4.63;;;;;;;16.48;100.00;94001.25;10368248;28;20468;-79
2021/05/05 17:25:22;;;;;;;6.20;3.03;;;;;;;16.47;100.00;93998.88;10368423;28;20454;-79
2021/05/05 17:46:38;;;;;;;3.80;1.92;;;;;;;17.07;100.00;93988.72;10408507;28;20057;-79
2021/05/05 18:33:12;;;;;;;8.50;2.70;;;;;;;17.35;100.00;93999.03;10366515;28;20029;-79
2021/05/05 18:38:12;;;;;;;6.68;2.42;;;;;;;17.31;100.00;94004.31;10367038;28;20026;-79
2021/05/05 18:43:34;;;;;;;4.28;2.38;;;;;;;17.24;100.00;93998.66;10366189;28;20089;-79
2021/05/05 20:04:15;;;;;;;8.02;4.10;;;;;;;16.88;100.00;94033.44;10412261;28;20025;-79
2021/05/05 21:06:51;;;;;;;14.48;9.65;;;;;;;15.42;100.00;94118.38;10369838;28;20528;-80
2021/05/05 21:38:56;;;;;;;18.17;9.55;;;;;;;15.36;100.00;94147.53;10409768;28;20025;-80
